Terminal Aerodrome Forecast
Issued by NWS Duluth, MN

Home | Current Version | Previous Version | Text Only | Print | Product List | Glossary On
Versions: 1 2 3 4 5 6 7 8 9 10 11 12 13 14 15 16 17 18 19 20 21 22 23 24
000
FTUS43 KDLH 201000 AAA
TAFDLH
TAF AMD
KDLH 201048Z 2011/2106 17006KT 4SM -FZDZSN BR OVC006
      TEMPO 2011/2014 2SM -FZDZSN BR OVC004
     FM201600 16008KT 2SM -FZDZSN BR OVC007
     FM202000 17007KT 6SM -FZDZSN BR SCT009 OVC012
     FM210000 19007KT P6SM OVC017=

USA.gov is the U.S. government's official web portal to all federal, state and local government web resources and services.